An Nasiriyah, Iraq
Current Conditions -  °F | °C
As of 5:00 AM on Saturday 20 Dec 2014 (Local Time) from ORMM Reporting Station
Haze Haze  
Wind Chill: 13°   Ceiling: Unl
Heat Index: 13°   Visibility: 2.5mi
Dew Point: 10°   Wind: 7mph
Humidity: 82%   Direction: 50°NE
Pressure: 30.09"   Gusts: NA
Location:  31.04°N, 46.26°E
Report Text: ORMM 200200Z 05006KT 4000 BR NSC 13/10 Q1019 NOSIG
Loading
Personal Weather Stations






























Interactive Weather Map New forecast layout! Learn more

10-Day Weather Forecast

Advertisements
Track Severe Weather on mobile